sensor_id;sensor_type;location;lat;lon;timestamp;P1;durP1;ratioP1;P2;durP2;ratioP2
23080;SDS011;11708;50.570;8.532;2022-09-13T00:00:40;10.13;;;6.28;;
23080;SDS011;11708;50.570;8.532;2022-09-13T00:03:07;7.57;;;6.15;;
23080;SDS011;11708;50.570;8.532;2022-09-13T00:05:34;8.40;;;6.38;;
23080;SDS011;11708;50.570;8.532;2022-09-13T00:08:00;10.05;;;6.70;;
23080;SDS011;11708;50.570;8.532;2022-09-13T00:10:26;8.18;;;6.10;;
23080;SDS011;11708;50.570;8.532;2022-09-13T00:12:52;9.68;;;6.18;;
23080;SDS011;11708;50.570;8.532;2022-09-13T00:15:18;10.77;;;6.47;;
23080;SDS011;11708;50.570;8.532;2022-09-13T00:17:44;8.90;;;6.55;;
23080;SDS011;11708;50.570;8.532;2022-09-13T00:20:10;11.20;;;6.45;;
23080;SDS011;11708;50.570;8.532;2022-09-13T00:22:36;11.75;;;7.10;;
23080;SDS011;11708;50.570;8.532;2022-09-13T00:25:05;8.60;;;6.60;;
23080;SDS011;11708;50.570;8.532;2022-09-13T00:27:32;10.10;;;6.93;;
23080;SDS011;11708;50.570;8.532;2022-09-13T00:29:58;9.18;;;6.68;;
23080;SDS011;11708;50.570;8.532;2022-09-13T00:32:24;10.18;;;6.78;;
23080;SDS011;11708;50.570;8.532;2022-09-13T00:34:50;9.35;;;6.40;;
23080;SDS011;11708;50.570;8.532;2022-09-13T00:37:15;10.23;;;6.82;;
23080;SDS011;11708;50.570;8.532;2022-09-13T00:39:41;9.15;;;6.32;;
23080;SDS011;11708;50.570;8.532;2022-09-13T00:42:13;9.07;;;6.60;;
23080;SDS011;11708;50.570;8.532;2022-09-13T00:44:56;8.98;;;6.18;;
23080;SDS011;11708;50.570;8.532;2022-09-13T00:47:47;10.18;;;6.45;;
23080;SDS011;11708;50.570;8.532;2022-09-13T00:52:47;12.05;;;6.70;;
23080;SDS011;11708;50.570;8.532;2022-09-13T00:55:28;6.70;;;5.55;;
23080;SDS011;11708;50.570;8.532;2022-09-13T00:58:04;12.35;;;6.82;;
23080;SDS011;11708;50.570;8.532;2022-09-13T01:00:33;9.63;;;6.78;;
23080;SDS011;11708;50.570;8.532;2022-09-13T01:03:01;10.90;;;6.60;;
23080;SDS011;11708;50.570;8.532;2022-09-13T01:05:37;10.43;;;6.75;;
23080;SDS011;11708;50.570;8.532;2022-09-13T01:08:15;9.98;;;6.30;;
23080;SDS011;11708;50.570;8.532;2022-09-13T01:10:46;9.65;;;7.15;;
23080;SDS011;11708;50.570;8.532;2022-09-13T01:13:23;10.88;;;7.55;;
23080;SDS011;11708;50.570;8.532;2022-09-13T01:15:57;9.48;;;7.03;;
23080;SDS011;11708;50.570;8.532;2022-09-13T01:18:23;9.68;;;6.72;;
23080;SDS011;11708;50.570;8.532;2022-09-13T01:21:02;10.95;;;7.28;;
23080;SDS011;11708;50.570;8.532;2022-09-13T01:37:36;10.07;;;6.88;;
23080;SDS011;11708;50.570;8.532;2022-09-13T01:40:22;9.02;;;6.75;;
23080;SDS011;11708;50.570;8.532;2022-09-13T01:43:06;12.20;;;7.22;;
23080;SDS011;11708;50.570;8.532;2022-09-13T01:46:12;8.93;;;6.60;;
23080;SDS011;11708;50.570;8.532;2022-09-13T01:52:55;11.27;;;6.75;;
23080;SDS011;11708;50.570;8.532;2022-09-13T01:55:12;11.90;;;7.43;;
23080;SDS011;11708;50.570;8.532;2022-09-13T01:57:50;10.57;;;6.65;;
23080;SDS011;11708;50.570;8.532;2022-09-13T02:00:17;9.23;;;6.22;;
23080;SDS011;11708;50.570;8.532;2022-09-13T02:08:15;8.82;;;6.68;;
23080;SDS011;11708;50.570;8.532;2022-09-13T02:10:55;11.23;;;7.10;;
23080;SDS011;11708;50.570;8.532;2022-09-13T02:13:28;12.82;;;7.65;;
23080;SDS011;11708;50.570;8.532;2022-09-13T02:16:01;10.55;;;7.47;;
23080;SDS011;11708;50.570;8.532;2022-09-13T02:18:37;11.20;;;7.50;;
23080;SDS011;11708;50.570;8.532;2022-09-13T02:21:13;11.10;;;7.13;;
23080;SDS011;11708;50.570;8.532;2022-09-13T02:23:46;11.02;;;7.30;;
23080;SDS011;11708;50.570;8.532;2022-09-13T02:26:15;12.23;;;7.60;;
23080;SDS011;11708;50.570;8.532;2022-09-13T02:28:46;9.77;;;7.05;;
23080;SDS011;11708;50.570;8.532;2022-09-13T02:31:17;9.10;;;7.03;;
23080;SDS011;11708;50.570;8.532;2022-09-13T02:33:49;11.70;;;7.65;;
23080;SDS011;11708;50.570;8.532;2022-09-13T02:36:21;14.38;;;7.38;;
23080;SDS011;11708;50.570;8.532;2022-09-13T02:38:50;9.80;;;7.38;;
23080;SDS011;11708;50.570;8.532;2022-09-13T02:41:46;11.75;;;7.40;;
23080;SDS011;11708;50.570;8.532;2022-09-13T02:44:30;11.25;;;7.53;;
23080;SDS011;11708;50.570;8.532;2022-09-13T02:49:48;10.95;;;6.78;;
23080;SDS011;11708;50.570;8.532;2022-09-13T03:00:12;9.50;;;7.18;;
23080;SDS011;11708;50.570;8.532;2022-09-13T03:02:38;9.35;;;7.03;;
23080;SDS011;11708;50.570;8.532;2022-09-13T03:05:06;16.73;;;7.50;;
23080;SDS011;11708;50.570;8.532;2022-09-13T03:07:32;11.32;;;7.00;;
23080;SDS011;11708;50.570;8.532;2022-09-13T03:09:59;9.05;;;6.93;;
23080;SDS011;11708;50.570;8.532;2022-09-13T03:20:53;9.93;;;6.93;;
23080;SDS011;11708;50.570;8.532;2022-09-13T03:26:40;11.60;;;6.28;;
23080;SDS011;11708;50.570;8.532;2022-09-13T03:29:16;7.82;;;6.35;;
23080;SDS011;11708;50.570;8.532;2022-09-13T03:37:07;8.43;;;6.45;;
23080;SDS011;11708;50.570;8.532;2022-09-13T03:39:47;10.77;;;6.47;;
23080;SDS011;11708;50.570;8.532;2022-09-13T03:42:27;11.63;;;6.50;;
23080;SDS011;11708;50.570;8.532;2022-09-13T03:44:56;7.38;;;5.93;;
23080;SDS011;11708;50.570;8.532;2022-09-13T03:47:24;8.38;;;6.25;;
23080;SDS011;11708;50.570;8.532;2022-09-13T03:49:52;9.13;;;6.40;;
23080;SDS011;11708;50.570;8.532;2022-09-13T03:52:20;10.40;;;6.18;;
23080;SDS011;11708;50.570;8.532;2022-09-13T03:54:46;10.52;;;6.07;;
23080;SDS011;11708;50.570;8.532;2022-09-13T03:57:15;8.73;;;5.93;;
23080;SDS011;11708;50.570;8.532;2022-09-13T03:59:54;9.23;;;6.68;;
23080;SDS011;11708;50.570;8.532;2022-09-13T04:02:22;9.30;;;6.47;;
23080;SDS011;11708;50.570;8.532;2022-09-13T04:04:48;9.30;;;5.97;;
23080;SDS011;11708;50.570;8.532;2022-09-13T04:07:16;10.82;;;6.40;;
23080;SDS011;11708;50.570;8.532;2022-09-13T04:09:43;10.98;;;7.70;;
23080;SDS011;11708;50.570;8.532;2022-09-13T04:12:10;10.40;;;6.57;;
23080;SDS011;11708;50.570;8.532;2022-09-13T04:14:37;10.73;;;7.32;;
23080;SDS011;11708;50.570;8.532;2022-09-13T04:17:04;12.85;;;7.43;;
23080;SDS011;11708;50.570;8.532;2022-09-13T04:19:29;13.43;;;7.57;;
23080;SDS011;11708;50.570;8.532;2022-09-13T04:21:55;13.13;;;7.22;;
23080;SDS011;11708;50.570;8.532;2022-09-13T04:24:23;11.02;;;6.68;;
23080;SDS011;11708;50.570;8.532;2022-09-13T04:26:53;8.52;;;6.28;;
23080;SDS011;11708;50.570;8.532;2022-09-13T04:29:22;9.20;;;6.72;;
23080;SDS011;11708;50.570;8.532;2022-09-13T04:31:49;8.95;;;7.00;;
23080;SDS011;11708;50.570;8.532;2022-09-13T04:34:16;10.15;;;6.88;;
23080;SDS011;11708;50.570;8.532;2022-09-13T04:36:42;10.77;;;6.45;;
23080;SDS011;11708;50.570;8.532;2022-09-13T04:39:10;12.02;;;7.65;;
23080;SDS011;11708;50.570;8.532;2022-09-13T04:41:37;9.15;;;6.47;;
23080;SDS011;11708;50.570;8.532;2022-09-13T04:44:04;11.90;;;6.72;;
23080;SDS011;11708;50.570;8.532;2022-09-13T04:46:29;11.55;;;7.32;;
23080;SDS011;11708;50.570;8.532;2022-09-13T04:48:55;10.70;;;6.70;;
23080;SDS011;11708;50.570;8.532;2022-09-13T04:51:21;8.75;;;6.32;;
23080;SDS011;11708;50.570;8.532;2022-09-13T04:53:51;11.10;;;6.65;;
23080;SDS011;11708;50.570;8.532;2022-09-13T04:56:18;9.43;;;6.60;;
23080;SDS011;11708;50.570;8.532;2022-09-13T04:58:44;10.52;;;6.60;;
23080;SDS011;11708;50.570;8.532;2022-09-13T05:01:09;8.98;;;6.40;;
23080;SDS011;11708;50.570;8.532;2022-09-13T05:03:35;10.25;;;6.93;;
23080;SDS011;11708;50.570;8.532;2022-09-13T05:06:05;9.98;;;7.30;;
23080;SDS011;11708;50.570;8.532;2022-09-13T05:08:33;8.73;;;6.25;;
23080;SDS011;11708;50.570;8.532;2022-09-13T05:11:00;9.88;;;6.88;;
23080;SDS011;11708;50.570;8.532;2022-09-13T05:13:26;9.50;;;6.60;;
23080;SDS011;11708;50.570;8.532;2022-09-13T05:15:55;11.35;;;7.53;;
23080;SDS011;11708;50.570;8.532;2022-09-13T05:18:31;15.98;;;7.43;;
23080;SDS011;11708;50.570;8.532;2022-09-13T05:20:59;13.45;;;7.75;;
23080;SDS011;11708;50.570;8.532;2022-09-13T05:23:25;9.63;;;6.90;;
23080;SDS011;11708;50.570;8.532;2022-09-13T05:25:53;8.93;;;6.78;;
23080;SDS011;11708;50.570;8.532;2022-09-13T05:28:19;10.18;;;7.00;;
23080;SDS011;11708;50.570;8.532;2022-09-13T05:31:02;10.80;;;7.65;;
23080;SDS011;11708;50.570;8.532;2022-09-13T05:33:31;9.30;;;6.22;;
23080;SDS011;11708;50.570;8.532;2022-09-13T05:35:58;16.25;;;7.28;;
23080;SDS011;11708;50.570;8.532;2022-09-13T05:38:23;22.17;;;10.98;;
23080;SDS011;11708;50.570;8.532;2022-09-13T05:40:53;36.67;;;22.17;;
23080;SDS011;11708;50.570;8.532;2022-09-13T05:43:20;24.02;;;11.70;;
23080;SDS011;11708;50.570;8.532;2022-09-13T05:45:46;16.40;;;8.25;;
23080;SDS011;11708;50.570;8.532;2022-09-13T05:48:11;22.25;;;8.48;;
23080;SDS011;11708;50.570;8.532;2022-09-13T05:50:37;12.23;;;7.35;;
23080;SDS011;11708;50.570;8.532;2022-09-13T05:53:03;17.50;;;7.75;;
23080;SDS011;11708;50.570;8.532;2022-09-13T05:55:29;11.25;;;7.60;;
23080;SDS011;11708;50.570;8.532;2022-09-13T05:57:55;12.02;;;7.57;;
23080;SDS011;11708;50.570;8.532;2022-09-13T06:00:20;12.82;;;7.88;;
23080;SDS011;11708;50.570;8.532;2022-09-13T06:02:48;12.45;;;7.32;;
23080;SDS011;11708;50.570;8.532;2022-09-13T06:05:13;24.80;;;15.73;;
23080;SDS011;11708;50.570;8.532;2022-09-13T06:07:39;13.48;;;8.48;;
23080;SDS011;11708;50.570;8.532;2022-09-13T06:10:06;12.82;;;8.65;;
23080;SDS011;11708;50.570;8.532;2022-09-13T06:12:35;10.88;;;7.65;;
23080;SDS011;11708;50.570;8.532;2022-09-13T06:15:01;9.73;;;7.38;;
23080;SDS011;11708;50.570;8.532;2022-09-13T06:17:27;12.25;;;8.32;;
23080;SDS011;11708;50.570;8.532;2022-09-13T06:19:52;10.45;;;7.60;;
23080;SDS011;11708;50.570;8.532;2022-09-13T06:22:18;16.25;;;8.95;;
23080;SDS011;11708;50.570;8.532;2022-09-13T06:24:43;11.60;;;8.00;;
23080;SDS011;11708;50.570;8.532;2022-09-13T06:27:09;17.33;;;8.10;;
23080;SDS011;11708;50.570;8.532;2022-09-13T06:29:35;13.60;;;7.60;;
23080;SDS011;11708;50.570;8.532;2022-09-13T06:32:04;13.10;;;7.75;;
23080;SDS011;11708;50.570;8.532;2022-09-13T06:34:30;10.00;;;7.50;;
23080;SDS011;11708;50.570;8.532;2022-09-13T06:36:55;11.13;;;7.55;;
23080;SDS011;11708;50.570;8.532;2022-09-13T06:39:21;12.15;;;7.82;;
23080;SDS011;11708;50.570;8.532;2022-09-13T06:41:47;12.02;;;8.18;;
23080;SDS011;11708;50.570;8.532;2022-09-13T06:44:12;15.82;;;8.32;;
23080;SDS011;11708;50.570;8.532;2022-09-13T06:46:38;13.55;;;7.53;;
23080;SDS011;11708;50.570;8.532;2022-09-13T06:49:04;11.35;;;8.15;;
23080;SDS011;11708;50.570;8.532;2022-09-13T06:51:32;11.48;;;8.57;;
23080;SDS011;11708;50.570;8.532;2022-09-13T06:53:59;15.93;;;9.60;;
23080;SDS011;11708;50.570;8.532;2022-09-13T06:56:27;13.60;;;8.82;;
23080;SDS011;11708;50.570;8.532;2022-09-13T06:58:58;11.80;;;7.47;;
23080;SDS011;11708;50.570;8.532;2022-09-13T07:01:28;14.68;;;8.05;;
23080;SDS011;11708;50.570;8.532;2022-09-13T07:06:26;14.15;;;9.25;;
23080;SDS011;11708;50.570;8.532;2022-09-13T07:08:54;10.80;;;7.90;;
23080;SDS011;11708;50.570;8.532;2022-09-13T07:11:22;14.35;;;8.93;;
23080;SDS011;11708;50.570;8.532;2022-09-13T07:13:50;11.18;;;7.65;;
23080;SDS011;11708;50.570;8.532;2022-09-13T07:16:21;12.50;;;8.90;;
23080;SDS011;11708;50.570;8.532;2022-09-13T07:18:54;11.52;;;8.02;;
23080;SDS011;11708;50.570;8.532;2022-09-13T07:21:22;14.05;;;8.18;;
23080;SDS011;11708;50.570;8.532;2022-09-13T07:23:48;17.00;;;7.75;;
23080;SDS011;11708;50.570;8.532;2022-09-13T07:26:15;13.45;;;7.72;;
23080;SDS011;11708;50.570;8.532;2022-09-13T07:28:41;11.63;;;8.13;;
23080;SDS011;11708;50.570;8.532;2022-09-13T07:31:09;13.02;;;7.93;;
23080;SDS011;11708;50.570;8.532;2022-09-13T07:33:38;14.77;;;8.75;;
23080;SDS011;11708;50.570;8.532;2022-09-13T07:36:04;12.85;;;7.57;;
23080;SDS011;11708;50.570;8.532;2022-09-13T07:38:40;12.77;;;7.78;;
23080;SDS011;11708;50.570;8.532;2022-09-13T07:41:10;11.30;;;8.15;;
23080;SDS011;11708;50.570;8.532;2022-09-13T07:43:38;13.38;;;8.98;;
23080;SDS011;11708;50.570;8.532;2022-09-13T07:46:04;12.70;;;8.30;;
23080;SDS011;11708;50.570;8.532;2022-09-13T07:48:32;10.40;;;8.02;;
23080;SDS011;11708;50.570;8.532;2022-09-13T07:51:03;13.57;;;8.65;;
23080;SDS011;11708;50.570;8.532;2022-09-13T07:53:31;11.65;;;8.02;;
23080;SDS011;11708;50.570;8.532;2022-09-13T07:58:31;13.25;;;8.57;;
23080;SDS011;11708;50.570;8.532;2022-09-13T08:01:33;13.30;;;8.20;;
23080;SDS011;11708;50.570;8.532;2022-09-13T08:03:54;12.65;;;8.27;;
23080;SDS011;11708;50.570;8.532;2022-09-13T08:06:26;13.25;;;9.10;;
23080;SDS011;11708;50.570;8.532;2022-09-13T08:08:53;12.02;;;8.80;;
23080;SDS011;11708;50.570;8.532;2022-09-13T08:11:20;11.80;;;7.55;;
23080;SDS011;11708;50.570;8.532;2022-09-13T08:13:47;14.95;;;8.55;;
23080;SDS011;11708;50.570;8.532;2022-09-13T08:16:15;12.27;;;8.43;;
23080;SDS011;11708;50.570;8.532;2022-09-13T08:18:43;13.07;;;8.57;;
23080;SDS011;11708;50.570;8.532;2022-09-13T08:21:09;11.57;;;7.97;;
23080;SDS011;11708;50.570;8.532;2022-09-13T08:23:35;16.60;;;9.95;;
23080;SDS011;11708;50.570;8.532;2022-09-13T08:26:01;16.15;;;9.00;;
23080;SDS011;11708;50.570;8.532;2022-09-13T08:28:27;11.13;;;8.38;;
23080;SDS011;11708;50.570;8.532;2022-09-13T08:30:54;11.70;;;8.32;;
23080;SDS011;11708;50.570;8.532;2022-09-13T08:33:19;12.23;;;8.25;;
23080;SDS011;11708;50.570;8.532;2022-09-13T08:35:49;11.48;;;7.75;;
23080;SDS011;11708;50.570;8.532;2022-09-13T08:38:16;13.10;;;8.55;;
23080;SDS011;11708;50.570;8.532;2022-09-13T08:40:44;12.23;;;7.88;;
23080;SDS011;11708;50.570;8.532;2022-09-13T08:43:20;11.38;;;7.85;;
23080;SDS011;11708;50.570;8.532;2022-09-13T08:46:00;11.50;;;8.30;;
23080;SDS011;11708;50.570;8.532;2022-09-13T08:48:34;10.75;;;7.80;;
23080;SDS011;11708;50.570;8.532;2022-09-13T08:51:04;16.17;;;10.52;;
23080;SDS011;11708;50.570;8.532;2022-09-13T08:53:31;20.67;;;12.77;;
23080;SDS011;11708;50.570;8.532;2022-09-13T08:56:12;12.18;;;7.93;;
23080;SDS011;11708;50.570;8.532;2022-09-13T09:01:19;10.27;;;7.00;;
23080;SDS011;11708;50.570;8.532;2022-09-13T09:06:39;12.68;;;6.93;;
23080;SDS011;11708;50.570;8.532;2022-09-13T09:09:17;10.70;;;7.57;;
23080;SDS011;11708;50.570;8.532;2022-09-13T09:11:47;9.55;;;6.40;;
23080;SDS011;11708;50.570;8.532;2022-09-13T09:14:37;11.55;;;7.68;;
23080;SDS011;11708;50.570;8.532;2022-09-13T09:17:17;9.27;;;6.70;;
23080;SDS011;11708;50.570;8.532;2022-09-13T09:19:49;8.85;;;6.10;;
23080;SDS011;11708;50.570;8.532;2022-09-13T09:22:20;11.45;;;6.80;;
23080;SDS011;11708;50.570;8.532;2022-09-13T09:24:48;9.40;;;6.38;;
23080;SDS011;11708;50.570;8.532;2022-09-13T09:27:18;10.25;;;6.63;;
23080;SDS011;11708;50.570;8.532;2022-09-13T09:29:46;9.85;;;7.13;;
23080;SDS011;11708;50.570;8.532;2022-09-13T09:32:36;10.10;;;7.68;;
23080;SDS011;11708;50.570;8.532;2022-09-13T09:35:20;8.30;;;6.40;;
23080;SDS011;11708;50.570;8.532;2022-09-13T09:38:34;9.65;;;6.70;;
23080;SDS011;11708;50.570;8.532;2022-09-13T09:40:51;11.05;;;7.13;;
23080;SDS011;11708;50.570;8.532;2022-09-13T09:43:29;9.75;;;6.82;;
23080;SDS011;11708;50.570;8.532;2022-09-13T09:45:59;9.48;;;6.22;;
23080;SDS011;11708;50.570;8.532;2022-09-13T09:48:29;7.70;;;5.90;;
23080;SDS011;11708;50.570;8.532;2022-09-13T09:51:03;9.52;;;7.32;;
23080;SDS011;11708;50.570;8.532;2022-09-13T09:53:32;12.70;;;8.77;;
23080;SDS011;11708;50.570;8.532;2022-09-13T09:56:17;7.53;;;6.00;;
23080;SDS011;11708;50.570;8.532;2022-09-13T09:58:49;8.02;;;6.00;;
23080;SDS011;11708;50.570;8.532;2022-09-13T10:04:36;5.82;;;5.22;;
23080;SDS011;11708;50.570;8.532;2022-09-13T10:06:44;10.95;;;6.03;;
23080;SDS011;11708;50.570;8.532;2022-09-13T10:09:14;8.55;;;5.80;;
23080;SDS011;11708;50.570;8.532;2022-09-13T10:14:38;7.40;;;5.45;;
23080;SDS011;11708;50.570;8.532;2022-09-13T10:17:17;7.75;;;5.10;;
23080;SDS011;11708;50.570;8.532;2022-09-13T10:19:54;9.05;;;4.68;;
23080;SDS011;11708;50.570;8.532;2022-09-13T10:22:26;6.55;;;4.43;;
23080;SDS011;11708;50.570;8.532;2022-09-13T10:24:53;4.80;;;3.50;;
23080;SDS011;11708;50.570;8.532;2022-09-13T10:27:24;5.80;;;3.78;;
23080;SDS011;11708;50.570;8.532;2022-09-13T10:29:57;3.45;;;3.15;;
23080;SDS011;11708;50.570;8.532;2022-09-13T10:32:26;4.53;;;3.38;;
23080;SDS011;11708;50.570;8.532;2022-09-13T10:34:53;5.45;;;3.30;;
23080;SDS011;11708;50.570;8.532;2022-09-13T10:37:27;5.80;;;3.67;;
23080;SDS011;11708;50.570;8.532;2022-09-13T10:40:00;3.95;;;3.42;;
23080;SDS011;11708;50.570;8.532;2022-09-13T10:42:33;3.75;;;3.33;;
23080;SDS011;11708;50.570;8.532;2022-09-13T10:52:51;6.88;;;3.20;;
23080;SDS011;11708;50.570;8.532;2022-09-13T10:57:48;5.05;;;3.25;;
23080;SDS011;11708;50.570;8.532;2022-09-13T11:00:19;6.75;;;3.38;;
23080;SDS011;11708;50.570;8.532;2022-09-13T11:05:47;3.80;;;3.15;;
23080;SDS011;11708;50.570;8.532;2022-09-13T11:08:24;4.65;;;3.45;;
23080;SDS011;11708;50.570;8.532;2022-09-13T11:30:21;8.27;;;3.10;;
23080;SDS011;11708;50.570;8.532;2022-09-13T11:46:50;2.90;;;1.95;;
23080;SDS011;11708;50.570;8.532;2022-09-13T11:58:00;3.20;;;2.20;;
23080;SDS011;11708;50.570;8.532;2022-09-13T12:00:31;3.47;;;2.17;;
23080;SDS011;11708;50.570;8.532;2022-09-13T12:03:08;3.60;;;2.13;;
23080;SDS011;11708;50.570;8.532;2022-09-13T12:05:55;2.53;;;2.13;;
23080;SDS011;11708;50.570;8.532;2022-09-13T12:08:29;2.10;;;1.90;;
23080;SDS011;11708;50.570;8.532;2022-09-13T12:11:03;2.20;;;2.00;;
23080;SDS011;11708;50.570;8.532;2022-09-13T12:13:52;1.90;;;1.70;;
23080;SDS011;11708;50.570;8.532;2022-09-13T12:16:24;3.00;;;1.90;;
23080;SDS011;11708;50.570;8.532;2022-09-13T12:18:57;3.72;;;1.85;;
23080;SDS011;11708;50.570;8.532;2022-09-13T12:21:51;2.42;;;2.03;;
23080;SDS011;11708;50.570;8.532;2022-09-13T12:24:27;4.10;;;2.17;;
23080;SDS011;11708;50.570;8.532;2022-09-13T12:27:02;4.70;;;1.98;;
23080;SDS011;11708;50.570;8.532;2022-09-13T12:29:43;2.78;;;1.73;;
23080;SDS011;11708;50.570;8.532;2022-09-13T12:32:14;2.83;;;2.08;;
23080;SDS011;11708;50.570;8.532;2022-09-13T12:34:49;2.45;;;2.00;;
23080;SDS011;11708;50.570;8.532;2022-09-13T12:37:29;2.22;;;1.55;;
23080;SDS011;11708;50.570;8.532;2022-09-13T12:40:08;4.10;;;1.90;;
23080;SDS011;11708;50.570;8.532;2022-09-13T12:42:47;1.80;;;1.52;;
23080;SDS011;11708;50.570;8.532;2022-09-13T12:45:32;1.80;;;1.70;;
23080;SDS011;11708;50.570;8.532;2022-09-13T12:54:05;1.80;;;1.70;;
23080;SDS011;11708;50.570;8.532;2022-09-13T12:56:53;2.17;;;1.50;;
23080;SDS011;11708;50.570;8.532;2022-09-13T13:02:22;1.40;;;1.30;;
23080;SDS011;11708;50.570;8.532;2022-09-13T13:05:02;1.40;;;1.30;;
23080;SDS011;11708;50.570;8.532;2022-09-13T13:07:30;3.78;;;1.55;;
23080;SDS011;11708;50.570;8.532;2022-09-13T13:09:59;1.50;;;1.40;;
23080;SDS011;11708;50.570;8.532;2022-09-13T13:12:35;2.75;;;1.40;;
23080;SDS011;11708;50.570;8.532;2022-09-13T13:15:05;3.20;;;1.70;;
23080;SDS011;11708;50.570;8.532;2022-09-13T13:17:54;1.55;;;1.45;;
23080;SDS011;11708;50.570;8.532;2022-09-13T13:23:19;1.70;;;1.60;;
23080;SDS011;11708;50.570;8.532;2022-09-13T13:29:10;2.88;;;1.80;;
23080;SDS011;11708;50.570;8.532;2022-09-13T13:36:56;4.32;;;1.80;;
23080;SDS011;11708;50.570;8.532;2022-09-13T13:59:46;2.75;;;2.20;;
23080;SDS011;11708;50.570;8.532;2022-09-13T14:02:14;3.38;;;2.30;;
23080;SDS011;11708;50.570;8.532;2022-09-13T14:04:47;1.88;;;1.75;;
23080;SDS011;11708;50.570;8.532;2022-09-13T14:07:34;3.47;;;1.92;;
23080;SDS011;11708;50.570;8.532;2022-09-13T14:10:35;2.95;;;1.70;;
23080;SDS011;11708;50.570;8.532;2022-09-13T14:13:35;4.20;;;2.00;;
23080;SDS011;11708;50.570;8.532;2022-09-13T14:18:57;2.30;;;2.10;;
23080;SDS011;11708;50.570;8.532;2022-09-13T14:21:29;4.30;;;2.10;;
23080;SDS011;11708;50.570;8.532;2022-09-13T14:24:08;2.85;;;1.80;;
23080;SDS011;11708;50.570;8.532;2022-09-13T14:26:48;4.43;;;1.90;;
23080;SDS011;11708;50.570;8.532;2022-09-13T14:29:17;4.32;;;1.73;;
23080;SDS011;11708;50.570;8.532;2022-09-13T14:31:46;5.78;;;1.70;;
23080;SDS011;11708;50.570;8.532;2022-09-13T14:34:30;5.03;;;1.60;;
23080;SDS011;11708;50.570;8.532;2022-09-13T14:37:03;2.30;;;2.00;;
23080;SDS011;11708;50.570;8.532;2022-09-13T14:39:39;3.17;;;1.80;;
23080;SDS011;11708;50.570;8.532;2022-09-13T14:42:21;4.95;;;1.90;;
23080;SDS011;11708;50.570;8.532;2022-09-13T14:44:47;2.67;;;1.67;;
23080;SDS011;11708;50.570;8.532;2022-09-13T14:47:22;2.88;;;1.60;;
23080;SDS011;11708;50.570;8.532;2022-09-13T14:50:13;2.70;;;1.70;;
23080;SDS011;11708;50.570;8.532;2022-09-13T14:55:19;7.13;;;2.03;;
23080;SDS011;11708;50.570;8.532;2022-09-13T14:57:52;2.60;;;1.63;;
23080;SDS011;11708;50.570;8.532;2022-09-13T15:00:23;2.70;;;1.38;;
23080;SDS011;11708;50.570;8.532;2022-09-13T15:02:51;1.92;;;1.50;;
23080;SDS011;11708;50.570;8.532;2022-09-13T15:05:19;5.63;;;1.70;;
23080;SDS011;11708;50.570;8.532;2022-09-13T15:07:47;3.40;;;1.50;;
23080;SDS011;11708;50.570;8.532;2022-09-13T15:15:32;2.88;;;1.50;;
23080;SDS011;11708;50.570;8.532;2022-09-13T15:21:05;3.75;;;1.40;;
23080;SDS011;11708;50.570;8.532;2022-09-13T15:23:39;4.60;;;1.77;;
23080;SDS011;11708;50.570;8.532;2022-09-13T15:26:22;1.48;;;1.38;;
23080;SDS011;11708;50.570;8.532;2022-09-13T15:28:53;1.48;;;1.30;;
23080;SDS011;11708;50.570;8.532;2022-09-13T15:31:24;3.00;;;1.23;;
23080;SDS011;11708;50.570;8.532;2022-09-13T15:34:11;1.40;;;1.00;;
23080;SDS011;11708;50.570;8.532;2022-09-13T15:36:45;2.22;;;1.23;;
23080;SDS011;11708;50.570;8.532;2022-09-13T15:39:14;3.88;;;1.30;;
23080;SDS011;11708;50.570;8.532;2022-09-13T15:41:54;2.28;;;1.67;;
23080;SDS011;11708;50.570;8.532;2022-09-13T15:44:24;2.25;;;1.17;;
23080;SDS011;11708;50.570;8.532;2022-09-13T15:47:00;2.03;;;1.20;;
23080;SDS011;11708;50.570;8.532;2022-09-13T15:49:28;1.25;;;1.00;;
23080;SDS011;11708;50.570;8.532;2022-09-13T15:52:02;1.23;;;1.02;;
23080;SDS011;11708;50.570;8.532;2022-09-13T15:54:38;2.95;;;1.20;;
23080;SDS011;11708;50.570;8.532;2022-09-13T15:57:12;2.72;;;1.15;;
23080;SDS011;11708;50.570;8.532;2022-09-13T15:59:42;1.05;;;1.00;;
23080;SDS011;11708;50.570;8.532;2022-09-13T16:04:46;1.63;;;1.30;;
23080;SDS011;11708;50.570;8.532;2022-09-13T16:07:12;1.10;;;1.00;;
23080;SDS011;11708;50.570;8.532;2022-09-13T16:09:39;2.88;;;1.20;;
23080;SDS011;11708;50.570;8.532;2022-09-13T16:12:04;2.85;;;1.40;;
23080;SDS011;11708;50.570;8.532;2022-09-13T16:14:30;2.28;;;1.00;;
23080;SDS011;11708;50.570;8.532;2022-09-13T16:16:56;1.20;;;1.00;;
23080;SDS011;11708;50.570;8.532;2022-09-13T16:19:31;3.28;;;1.20;;
23080;SDS011;11708;50.570;8.532;2022-09-13T16:21:56;1.33;;;1.00;;
23080;SDS011;11708;50.570;8.532;2022-09-13T16:24:22;1.33;;;1.20;;
23080;SDS011;11708;50.570;8.532;2022-09-13T16:26:48;1.33;;;1.10;;
23080;SDS011;11708;50.570;8.532;2022-09-13T16:29:13;1.23;;;1.13;;
23080;SDS011;11708;50.570;8.532;2022-09-13T16:31:39;1.25;;;1.15;;
23080;SDS011;11708;50.570;8.532;2022-09-13T16:34:05;1.40;;;1.13;;
23080;SDS011;11708;50.570;8.532;2022-09-13T16:36:31;1.50;;;1.40;;
23080;SDS011;11708;50.570;8.532;2022-09-13T16:38:58;1.70;;;1.20;;
23080;SDS011;11708;50.570;8.532;2022-09-13T16:41:24;1.65;;;1.35;;
23080;SDS011;11708;50.570;8.532;2022-09-13T16:43:50;2.08;;;1.45;;
23080;SDS011;11708;50.570;8.532;2022-09-13T16:46:15;4.35;;;1.80;;
23080;SDS011;11708;50.570;8.532;2022-09-13T16:48:42;1.52;;;1.30;;
23080;SDS011;11708;50.570;8.532;2022-09-13T16:51:08;1.75;;;1.30;;
23080;SDS011;11708;50.570;8.532;2022-09-13T16:53:36;1.65;;;1.40;;
23080;SDS011;11708;50.570;8.532;2022-09-13T16:56:05;3.80;;;1.50;;
23080;SDS011;11708;50.570;8.532;2022-09-13T16:58:36;4.00;;;1.45;;
23080;SDS011;11708;50.570;8.532;2022-09-13T17:01:07;3.03;;;1.45;;
23080;SDS011;11708;50.570;8.532;2022-09-13T17:03:34;1.77;;;1.30;;
23080;SDS011;11708;50.570;8.532;2022-09-13T17:06:01;2.28;;;1.40;;
23080;SDS011;11708;50.570;8.532;2022-09-13T17:08:35;1.85;;;1.35;;
23080;SDS011;11708;50.570;8.532;2022-09-13T17:11:06;3.97;;;1.60;;
23080;SDS011;11708;50.570;8.532;2022-09-13T17:13:35;1.48;;;1.33;;
23080;SDS011;11708;50.570;8.532;2022-09-13T17:16:01;1.25;;;1.15;;
23080;SDS011;11708;50.570;8.532;2022-09-13T17:18:28;4.80;;;1.38;;
23080;SDS011;11708;50.570;8.532;2022-09-13T17:20:53;2.67;;;1.30;;
23080;SDS011;11708;50.570;8.532;2022-09-13T17:23:19;1.92;;;1.45;;
23080;SDS011;11708;50.570;8.532;2022-09-13T17:25:45;1.85;;;1.65;;
23080;SDS011;11708;50.570;8.532;2022-09-13T17:28:13;3.33;;;1.50;;
23080;SDS011;11708;50.570;8.532;2022-09-13T17:30:40;5.95;;;1.45;;
23080;SDS011;11708;50.570;8.532;2022-09-13T17:33:06;2.97;;;1.33;;
23080;SDS011;11708;50.570;8.532;2022-09-13T17:35:32;3.08;;;1.40;;
23080;SDS011;11708;50.570;8.532;2022-09-13T17:37:58;2.75;;;1.60;;
23080;SDS011;11708;50.570;8.532;2022-09-13T17:40:25;2.65;;;1.65;;
23080;SDS011;11708;50.570;8.532;2022-09-13T17:42:51;3.03;;;1.45;;
23080;SDS011;11708;50.570;8.532;2022-09-13T17:45:17;3.28;;;1.40;;
23080;SDS011;11708;50.570;8.532;2022-09-13T17:47:43;5.35;;;1.73;;
23080;SDS011;11708;50.570;8.532;2022-09-13T17:50:09;4.75;;;1.60;;
23080;SDS011;11708;50.570;8.532;2022-09-13T17:52:35;2.55;;;1.38;;
23080;SDS011;11708;50.570;8.532;2022-09-13T17:55:02;3.65;;;1.77;;
23080;SDS011;11708;50.570;8.532;2022-09-13T17:57:28;3.47;;;1.60;;
23080;SDS011;11708;50.570;8.532;2022-09-13T17:59:53;5.18;;;2.00;;
23080;SDS011;11708;50.570;8.532;2022-09-13T18:02:19;9.27;;;2.35;;
23080;SDS011;11708;50.570;8.532;2022-09-13T18:04:50;3.10;;;1.75;;
23080;SDS011;11708;50.570;8.532;2022-09-13T18:07:16;3.92;;;1.60;;